createdAt,value
2023-03-22T00:01:34.805Z,14.20
2023-03-22T00:04:04.213Z,43.17
2023-03-22T00:06:32.141Z,18.80
2023-03-22T00:09:00.030Z,20.67
2023-03-22T00:11:28.115Z,10.23
2023-03-22T00:13:56.366Z,9.43
2023-03-22T00:16:24.314Z,10.37
2023-03-22T00:18:52.805Z,9.63
2023-03-22T00:21:22.424Z,10.43
2023-03-22T00:23:50.902Z,11.73
2023-03-22T00:26:18.863Z,13.10
2023-03-22T00:28:46.838Z,17.30
2023-03-22T00:31:15.663Z,10.33
2023-03-22T00:33:44.385Z,10.70
2023-03-22T00:36:22.747Z,10.90
2023-03-22T00:38:53.183Z,9.50
2023-03-22T00:41:22.814Z,10.07
2023-03-22T00:43:52.456Z,9.77
2023-03-22T00:46:21.967Z,9.60
2023-03-22T00:48:50.501Z,9.23
2023-03-22T00:51:18.770Z,8.90
2023-03-22T00:53:49.653Z,15.70
2023-03-22T00:56:18.766Z,10.40
2023-03-22T00:58:56.283Z,9.77
2023-03-22T01:01:24.480Z,11.07
2023-03-22T01:03:52.516Z,9.43
2023-03-22T01:06:21.456Z,8.90
2023-03-22T01:08:51.606Z,9.00
2023-03-22T01:11:19.587Z,9.97
2023-03-22T01:13:48.342Z,9.03
2023-03-22T01:16:16.414Z,9.40
2023-03-22T01:18:44.588Z,9.97
2023-03-22T01:21:12.729Z,10.60
2023-03-22T01:23:41.187Z,10.40
2023-03-22T01:26:10.481Z,10.13
2023-03-22T01:28:40.616Z,10.43
2023-03-22T01:31:09.083Z,9.97
2023-03-22T01:33:37.785Z,9.50
2023-03-22T01:36:06.644Z,9.73
2023-03-22T01:38:36.000Z,10.47
2023-03-22T01:41:04.440Z,13.97
2023-03-22T01:43:37.251Z,12.00
2023-03-22T01:46:05.709Z,10.90
2023-03-22T01:48:38.673Z,12.63
2023-03-22T01:51:10.611Z,11.47
2023-03-22T01:54:05.646Z,11.80
2023-03-22T01:56:38.667Z,12.43
2023-03-22T01:59:12.123Z,11.90
2023-03-22T02:02:00.492Z,10.67
2023-03-22T02:04:34.267Z,10.40
2023-03-22T02:07:09.973Z,10.13
2023-03-22T02:09:42.270Z,11.13
2023-03-22T02:12:20.816Z,9.40
2023-03-22T02:15:12.027Z,8.90
2023-03-22T02:18:16.515Z,8.63
2023-03-22T02:21:22.862Z,10.10
2023-03-22T02:24:28.333Z,10.20
2023-03-22T02:27:33.871Z,10.93
2023-03-22T02:30:31.100Z,10.33
2023-03-22T02:33:16.227Z,9.17
2023-03-22T02:35:55.955Z,9.87
2023-03-22T02:39:06.621Z,10.30
2023-03-22T02:41:48.012Z,8.70
2023-03-22T02:44:23.493Z,8.50
2023-03-22T02:47:01.511Z,10.07
2023-03-22T02:49:35.777Z,9.83
2023-03-22T02:52:11.257Z,9.67
2023-03-22T02:54:44.735Z,8.47
2023-03-22T02:57:18.778Z,8.33
2023-03-22T02:59:47.978Z,9.43
2023-03-22T03:02:18.264Z,8.60
2023-03-22T03:04:49.968Z,8.60
2023-03-22T03:07:21.832Z,9.20
2023-03-22T03:09:52.486Z,9.57
2023-03-22T03:12:22.186Z,9.63
2023-03-22T03:14:52.095Z,10.17
2023-03-22T03:17:29.915Z,8.50
2023-03-22T03:20:17.958Z,9.70
2023-03-22T03:22:58.758Z,9.43
2023-03-22T03:25:38.346Z,8.77
2023-03-22T03:28:16.218Z,8.47
2023-03-22T03:30:54.906Z,9.10
2023-03-22T03:33:27.508Z,8.80
2023-03-22T03:35:59.683Z,8.90
2023-03-22T03:38:30.290Z,9.00
2023-03-22T03:41:04.513Z,8.80
2023-03-22T03:43:34.684Z,9.03
2023-03-22T03:46:03.205Z,9.50
2023-03-22T03:48:34.128Z,9.20
2023-03-22T03:51:03.239Z,8.90
2023-03-22T03:53:32.111Z,8.57
2023-03-22T03:56:01.374Z,8.50
2023-03-22T03:58:36.107Z,9.00
2023-03-22T04:01:04.626Z,10.67
2023-03-22T04:03:56.336Z,12.23
2023-03-22T04:06:35.577Z,13.70
2023-03-22T04:09:10.347Z,13.57
2023-03-22T04:11:44.411Z,14.33
2023-03-22T04:14:13.119Z,11.70
2023-03-22T04:16:47.954Z,12.47
2023-03-22T04:19:20.027Z,11.70
2023-03-22T04:21:48.023Z,12.50
2023-03-22T04:24:16.482Z,9.70
2023-03-22T04:26:48.834Z,8.70
2023-03-22T04:29:26.133Z,8.00
2023-03-22T04:32:03.566Z,8.43
2023-03-22T04:34:41.473Z,8.10
2023-03-22T04:37:14.714Z,7.87
2023-03-22T04:40:17.417Z,8.63
2023-03-22T04:43:05.156Z,8.53
2023-03-22T04:45:58.379Z,7.43
2023-03-22T04:48:32.723Z,8.67
2023-03-22T04:51:04.693Z,6.70
2023-03-22T04:53:39.958Z,7.43
2023-03-22T04:56:12.963Z,8.10
2023-03-22T04:58:48.344Z,8.00
2023-03-22T05:01:20.734Z,7.13
2023-03-22T05:03:55.948Z,6.80
2023-03-22T05:06:26.320Z,8.23
2023-03-22T05:09:03.916Z,7.40
2023-03-22T05:11:32.282Z,9.00
2023-03-22T05:14:15.674Z,7.20
2023-03-22T05:16:43.949Z,7.53
2023-03-22T05:19:14.205Z,8.03
2023-03-22T05:21:45.903Z,8.10
2023-03-22T05:24:13.860Z,7.80
2023-03-22T05:26:44.908Z,8.17
2023-03-22T05:29:15.439Z,9.53
2023-03-22T05:32:07.055Z,8.53
2023-03-22T05:34:36.340Z,8.83
2023-03-22T05:37:21.193Z,8.33
2023-03-22T05:39:55.657Z,10.03
2023-03-22T05:42:31.495Z,9.10
2023-03-22T05:45:02.079Z,9.73
2023-03-22T05:47:30.762Z,9.77
2023-03-22T05:50:03.902Z,11.10
2023-03-22T05:52:33.980Z,10.63
2023-03-22T05:55:18.734Z,9.50
2023-03-22T05:57:51.383Z,10.20
2023-03-22T06:00:21.893Z,9.17
2023-03-22T06:03:16.959Z,9.20
2023-03-22T06:05:50.890Z,9.30
2023-03-22T06:08:21.888Z,9.90
2023-03-22T06:10:51.878Z,10.03
2023-03-22T06:13:19.900Z,10.33
2023-03-22T06:15:49.398Z,9.40
2023-03-22T06:18:26.358Z,10.43
2023-03-22T06:21:02.833Z,10.33
2023-03-22T06:23:39.799Z,10.37
2023-03-22T06:26:11.515Z,10.67
2023-03-22T06:28:40.956Z,10.70
2023-03-22T06:31:11.603Z,10.13
2023-03-22T06:33:56.458Z,9.60
2023-03-22T06:36:30.319Z,10.23
2023-03-22T06:39:07.954Z,8.90
2023-03-22T06:41:42.094Z,9.23
2023-03-22T06:44:10.276Z,8.50
2023-03-22T06:47:05.867Z,8.73
2023-03-22T06:49:46.020Z,8.63
2023-03-22T06:52:20.334Z,9.73
2023-03-22T06:54:48.624Z,7.53
2023-03-22T06:57:16.683Z,7.73
2023-03-22T06:59:44.620Z,7.57
2023-03-22T07:02:16.000Z,8.17
2023-03-22T07:05:01.211Z,8.50
2023-03-22T07:07:29.126Z,7.60
2023-03-22T07:09:57.094Z,7.30
2023-03-22T07:12:25.773Z,7.13
2023-03-22T07:14:54.111Z,7.40
2023-03-22T07:17:36.757Z,7.90
2023-03-22T07:20:05.380Z,7.77
2023-03-22T07:22:33.462Z,7.70
2023-03-22T07:25:01.962Z,7.50
2023-03-22T07:27:32.671Z,8.17
2023-03-22T07:30:01.652Z,7.30
2023-03-22T07:32:30.901Z,7.80
2023-03-22T07:35:07.498Z,7.00
2023-03-22T07:37:35.592Z,6.80
2023-03-22T07:40:09.933Z,7.30
2023-03-22T07:42:38.148Z,7.50
2023-03-22T07:45:32.100Z,7.70
2023-03-22T07:48:22.623Z,7.70
2023-03-22T07:51:00.030Z,7.90
2023-03-22T07:53:28.345Z,7.47
2023-03-22T07:55:57.400Z,6.27
2023-03-22T07:58:25.602Z,6.93
2023-03-22T08:00:53.537Z,6.40
2023-03-22T08:03:41.380Z,5.87
2023-03-22T08:06:32.718Z,5.57
2023-03-22T08:09:01.365Z,5.97
2023-03-22T08:11:29.501Z,5.83
2023-03-22T08:13:58.911Z,5.93
2023-03-22T08:16:27.189Z,6.40
2023-03-22T08:18:55.958Z,5.67
2023-03-22T08:21:27.387Z,5.30
2023-03-22T08:23:58.569Z,5.33
2023-03-22T08:26:45.814Z,5.10
2023-03-22T08:29:19.976Z,5.00
2023-03-22T08:31:49.341Z,4.80
2023-03-22T08:34:17.337Z,4.13
2023-03-22T08:36:46.798Z,3.93
2023-03-22T08:39:16.370Z,4.33
2023-03-22T08:42:03.884Z,4.87
2023-03-22T08:44:32.179Z,4.10
2023-03-22T08:47:03.170Z,3.80
2023-03-22T08:49:33.196Z,3.53
2023-03-22T08:52:08.737Z,3.90
2023-03-22T08:54:46.425Z,3.60
2023-03-22T08:57:44.548Z,4.00
2023-03-22T09:00:22.131Z,3.97
2023-03-22T09:03:06.023Z,3.50
2023-03-22T09:05:34.494Z,4.87
2023-03-22T09:08:06.565Z,3.40
2023-03-22T09:10:42.261Z,2.83
2023-03-22T09:13:13.492Z,3.60
2023-03-22T09:15:46.859Z,3.30
2023-03-22T09:18:24.361Z,3.07
2023-03-22T09:20:53.704Z,2.77
2023-03-22T09:23:26.497Z,2.20
2023-03-22T09:25:57.009Z,2.60
2023-03-22T09:28:27.358Z,1.87
2023-03-22T09:31:02.371Z,1.83
2023-03-22T09:33:31.353Z,1.70
2023-03-22T09:35:59.624Z,1.30
2023-03-22T09:38:28.144Z,1.30
2023-03-22T09:41:02.473Z,1.53
2023-03-22T09:43:36.926Z,1.60
2023-03-22T09:46:09.718Z,1.67
2023-03-22T09:48:39.985Z,1.70
2023-03-22T09:51:20.375Z,1.70
2023-03-22T09:53:50.680Z,1.93
2023-03-22T09:56:24.993Z,1.40
2023-03-22T09:58:57.494Z,2.10
2023-03-22T10:01:37.514Z,1.60
2023-03-22T10:04:43.657Z,1.67
2023-03-22T10:07:19.726Z,1.80
2023-03-22T10:09:55.866Z,1.47
2023-03-22T10:12:29.528Z,1.47
2023-03-22T10:15:04.034Z,1.80
2023-03-22T10:17:32.891Z,1.70
2023-03-22T10:20:08.400Z,1.80
2023-03-22T10:22:41.309Z,2.47
2023-03-22T10:25:10.641Z,1.77
2023-03-22T10:27:40.272Z,1.70
2023-03-22T10:30:11.255Z,1.83
2023-03-22T10:32:56.733Z,1.50
2023-03-22T10:35:25.496Z,1.97
2023-03-22T10:37:55.648Z,1.40
2023-03-22T10:40:28.122Z,1.20
2023-03-22T10:43:01.375Z,1.83
2023-03-22T10:45:29.830Z,1.50
2023-03-22T10:48:01.673Z,1.63
2023-03-22T10:50:32.961Z,1.40
2023-03-22T10:53:06.530Z,1.50
2023-03-22T10:55:40.138Z,1.80
2023-03-22T10:58:15.680Z,1.47
2023-03-22T11:00:49.149Z,1.63
2023-03-22T11:03:30.749Z,1.83
2023-03-22T11:06:06.369Z,1.73
2023-03-22T11:08:41.473Z,1.70
2023-03-22T11:11:21.029Z,2.67
2023-03-22T11:13:57.466Z,1.57
2023-03-22T11:16:25.741Z,1.77
2023-03-22T11:18:53.917Z,2.07
2023-03-22T11:21:28.996Z,1.60
2023-03-22T11:24:00.508Z,1.47
2023-03-22T11:26:35.682Z,1.90
2023-03-22T11:29:13.595Z,1.60
2023-03-22T11:31:56.347Z,1.50
2023-03-22T11:34:27.738Z,1.60
2023-03-22T11:36:57.849Z,1.40
2023-03-22T11:39:29.138Z,1.53
2023-03-22T11:42:01.321Z,1.50
2023-03-22T11:44:35.480Z,1.00
2023-03-22T11:47:05.263Z,1.23
2023-03-22T11:49:41.224Z,1.20
2023-03-22T11:52:11.555Z,1.23
2023-03-22T11:54:42.351Z,1.50
2023-03-22T11:57:15.490Z,1.20
2023-03-22T11:59:51.089Z,0.93
2023-03-22T12:02:24.762Z,1.00
2023-03-22T12:05:00.581Z,1.00
2023-03-22T12:07:31.205Z,1.47
2023-03-22T12:10:04.885Z,1.30
2023-03-22T12:12:37.953Z,1.30
2023-03-22T12:15:13.657Z,0.80
2023-03-22T12:17:48.763Z,1.17
2023-03-22T12:20:22.776Z,1.17
2023-03-22T12:22:55.952Z,1.40
2023-03-22T12:25:28.022Z,0.97
2023-03-22T12:27:59.047Z,1.20
2023-03-22T12:30:32.764Z,1.20
2023-03-22T12:33:04.780Z,1.33
2023-03-22T12:35:36.270Z,1.27
2023-03-22T12:38:23.672Z,1.10
2023-03-22T12:40:53.638Z,1.27
2023-03-22T12:43:34.804Z,1.20
2023-03-22T12:46:06.489Z,0.83
2023-03-22T12:48:41.251Z,1.10
2023-03-22T12:51:12.820Z,1.10
2023-03-22T12:53:44.607Z,0.93
2023-03-22T12:56:14.187Z,1.20
2023-03-22T12:58:45.347Z,1.20
2023-03-22T13:01:24.322Z,1.43
2023-03-22T13:03:54.750Z,1.50
2023-03-22T13:06:36.716Z,1.53
2023-03-22T13:09:17.269Z,0.83
2023-03-22T13:11:46.603Z,1.57
2023-03-22T13:14:56.133Z,1.30
2023-03-22T13:17:43.885Z,1.23
2023-03-22T13:20:30.857Z,1.40
2023-03-22T13:23:14.082Z,1.20
2023-03-22T13:26:00.777Z,1.30
2023-03-22T13:28:30.843Z,1.20
2023-03-22T13:30:59.814Z,1.50
2023-03-22T13:33:32.538Z,1.50
2023-03-22T13:36:06.577Z,1.50
2023-03-22T13:38:37.781Z,1.63
2023-03-22T13:41:08.803Z,1.30
2023-03-22T13:43:46.943Z,1.63
2023-03-22T13:46:30.458Z,1.50
2023-03-22T13:49:20.476Z,1.87
2023-03-22T13:51:49.126Z,1.20
2023-03-22T13:54:24.040Z,1.23
2023-03-22T13:56:56.961Z,1.37
2023-03-22T13:59:30.954Z,1.30
2023-03-22T14:02:04.828Z,1.20
2023-03-22T14:04:42.506Z,1.13
2023-03-22T14:07:24.032Z,1.80
2023-03-22T14:09:54.434Z,1.80
2023-03-22T14:12:25.819Z,1.97
2023-03-22T14:14:57.964Z,1.47
2023-03-22T14:17:35.160Z,1.87
2023-03-22T14:20:10.539Z,1.03
